Weather at Toncontín International Airport

Public forecast

Using degrees Celsius for public forecast. Weather courtesy of forecast.io.

Current aviation weather report (METAR) for Toncontín International Airport

2024/02/23 07:00 (retrieved 12 minutes ago)

MHTG 230700Z 12004KT CAVOK 13/07 Q1018 A3006 NOSIG

Aviation forecast (TAF) for Toncontín International Airport

2024/02/23 06:21 (retrieved 51 minutes ago)

TAF MHTG 230500Z 2306/2406 VRB03KT 9999 FEW028 TX31/2321Z TN11/2312Z